Time;durP1;ratioP1;P1;durP2;ratioP2;P2;SDS_P1;SDS_P2;PMS_P1;PMS_P2;Temp;Humidity;BMP_temperature;BMP_pressure;BME280_temperature;BME280_humidity;BME280_pressure;Samples;Min_cycle;Max_cycle;Signal;HPM_P1;HPM_P2
2023/03/25 00:04:03;;;;;;;14.15;8.85;;;7.00;99.90;;;;;;20985885;28;20033;-50
2023/03/25 00:14:04;;;;;;;13.38;9.45;;;6.90;99.90;;;;;;20985195;28;20045;-47
2023/03/25 00:24:06;;;;;;;10.10;8.15;;;7.10;99.90;;;;;;20985163;28;20474;-48
2023/03/25 00:34:08;;;;;;;16.50;10.68;;;7.20;99.90;;;;;;20966727;28;20367;-50
2023/03/25 00:44:13;;;;;;;14.40;9.32;;;7.20;99.90;;;;;;20984289;28;20079;-50
2023/03/25 00:54:15;;;;;;;15.45;10.70;;;7.10;99.90;;;;;;20966657;28;20036;-50
2023/03/25 01:04:18;;;;;;;14.30;10.00;;;7.10;99.90;;;;;;20985894;28;20482;-49
2023/03/25 01:14:23;;;;;;;16.63;10.48;;;6.70;99.90;;;;;;20999121;28;20048;-50
2023/03/25 01:24:24;;;;;;;14.05;10.68;;;6.30;99.90;;;;;;20997916;28;20382;-47
2023/03/25 01:34:26;;;;;;;13.88;9.23;;;6.10;99.90;;;;;;20996804;28;20028;-46
2023/03/25 01:44:28;;;;;;;10.48;7.40;;;6.00;99.90;;;;;;20978900;28;20037;-48
2023/03/25 01:54:30;;;;;;;13.30;7.65;;;6.20;99.90;;;;;;20997054;28;20454;-47
2023/03/25 02:04:44;;;;;;;11.82;7.45;;;6.50;99.90;;;;;;20977807;28;20048;-49
2023/03/25 02:14:45;;;;;;;10.68;7.70;;;6.60;99.90;;;;;;20993968;28;20040;-46
2023/03/25 02:25:18;;;;;;;11.50;7.43;;;6.60;99.90;;;;;;20975864;28;20041;-50
2023/03/25 02:35:48;;;;;;;12.88;7.55;;;6.50;99.90;;;;;;20973042;28;20764;-47
2023/03/25 02:45:54;;;;;;;9.00;6.47;;;6.30;99.90;;;;;;20973452;28;20038;-47
2023/03/25 02:56:01;;;;;;;11.80;7.75;;;6.30;99.90;;;;;;20972472;28;20047;-49
2023/03/25 03:06:05;;;;;;;11.38;7.30;;;6.20;99.90;;;;;;20972089;28;20082;-47
2023/03/25 03:16:36;;;;;;;8.70;6.45;;;6.10;99.90;;;;;;20968738;28;20086;-48
2023/03/25 03:27:06;;;;;;;10.80;6.80;;;5.90;99.90;;;;;;20982241;28;20090;-49
2023/03/25 03:37:10;;;;;;;10.77;6.93;;;5.70;99.90;;;;;;21071168;28;20444;-49
2023/03/25 03:47:17;;;;;;;9.45;6.78;;;5.50;99.90;;;;;;21070218;28;20032;-50
2023/03/25 03:57:22;;;;;;;10.63;6.53;;;5.40;99.90;;;;;;21070838;28;20044;-50
2023/03/25 04:07:44;;;;;;;10.38;6.45;;;5.40;99.90;;;;;;21069567;28;20028;-48
2023/03/25 04:17:46;;;;;;;8.05;6.28;;;5.80;99.90;;;;;;21068757;28;20093;-46
2023/03/25 04:27:48;;;;;;;7.47;5.82;;;5.80;99.90;;;;;;21068388;28;20039;-49
2023/03/25 04:37:53;;;;;;;8.32;5.15;;;6.00;99.90;;;;;;21070470;28;20036;-51
2023/03/25 04:47:55;;;;;;;3.92;2.65;;;5.90;99.90;;;;;;21085015;28;20135;-45
2023/03/25 04:57:56;;;;;;;4.93;3.55;;;6.10;99.90;;;;;;21083825;28;20028;-47
2023/03/25 05:07:58;;;;;;;4.20;3.13;;;5.80;99.90;;;;;;21081610;28;20032;-49
2023/03/25 05:18:01;;;;;;;4.07;2.63;;;5.70;99.90;;;;;;21082233;28;20059;-50
2023/03/25 05:28:04;;;;;;;4.93;2.95;;;5.90;99.90;;;;;;21081305;28;20036;-48
2023/03/25 05:38:07;;;;;;;5.68;3.30;;;5.80;99.90;;;;;;21079165;28;20693;-47
2023/03/25 05:48:10;;;;;;;3.90;2.80;;;5.40;99.90;;;;;;21079789;28;20066;-49
2023/03/25 05:58:12;;;;;;;5.47;3.05;;;5.10;99.90;;;;;;21078622;28;20044;-48
2023/03/25 06:08:13;;;;;;;4.15;2.97;;;5.10;99.90;;;;;;21078396;28;20036;-47
2023/03/25 06:18:15;;;;;;;6.88;5.22;;;5.20;99.90;;;;;;21077551;28;20024;-49
2023/03/25 06:28:17;;;;;;;11.43;6.68;;;5.10;99.90;;;;;;21076746;28;20028;-50
2023/03/25 06:38:22;;;;;;;6.35;5.00;;;5.30;99.90;;;;;;21074344;28;20028;-48
2023/03/25 06:48:56;;;;;;;10.35;6.72;;;5.30;99.90;;;;;;20815980;28;20041;-47
2023/03/25 06:58:58;;;;;;;17.58;10.55;;;5.50;99.90;;;;;;20815090;28;20056;-50
2023/03/25 07:09:00;;;;;;;14.43;9.35;;;5.60;99.90;;;;;;20813774;28;20038;-47
2023/03/25 07:19:01;;;;;;;13.00;7.18;;;5.90;99.90;;;;;;20898689;28;20044;-46
2023/03/25 07:29:03;;;;;;;9.02;5.85;;;6.40;99.90;;;;;;21053335;28;20066;-51
2023/03/25 07:39:06;;;;;;;5.60;4.30;;;7.10;99.90;;;;;;21071422;28;20024;-47
2023/03/25 07:49:08;;;;;;;6.45;4.75;;;8.00;99.90;;;;;;21052854;28;20032;-50
2023/03/25 07:59:09;;;;;;;5.53;3.42;;;9.40;99.90;;;;;;21070148;28;20051;-51
2023/03/25 08:09:11;;;;;;;7.55;4.20;;;10.10;99.90;;;;;;21069614;28;20043;-50
2023/03/25 08:19:13;;;;;;;5.63;3.92;;;11.30;99.90;;;;;;21029944;28;20550;-51
2023/03/25 08:29:16;;;;;;;5.38;3.40;;;11.80;99.90;;;;;;21068598;28;20555;-50
2023/03/25 08:39:18;;;;;;;6.47;3.28;;;12.30;99.90;;;;;;21068587;28;20032;-52
2023/03/25 08:49:19;;;;;;;4.32;3.00;;;12.60;99.90;;;;;;21067843;28;20485;-52
2023/03/25 08:59:21;;;;;;;6.15;3.70;;;12.60;99.90;;;;;;21067654;28;20374;-51
2023/03/25 09:09:22;;;;;;;9.82;5.35;;;13.00;99.90;;;;;;21068633;28;20047;-49
2023/03/25 09:19:25;;;;;;;7.03;4.53;;;13.40;99.90;;;;;;21066367;28;20033;-52
2023/03/25 09:29:27;;;;;;;6.93;4.22;;;13.80;99.90;;;;;;21074573;28;20032;-50
2023/03/25 09:39:29;;;;;;;4.55;3.63;;;15.10;99.90;;;;;;21081283;28;20054;-52
2023/03/25 09:49:41;;;;;;;8.93;4.97;;;14.60;99.90;;;;;;21079890;28;20082;-49
2023/03/25 09:59:48;;;;;;;4.43;3.80;;;15.90;99.90;;;;;;21079350;28;20490;-51
2023/03/25 10:10:18;;;;;;;8.48;5.40;;;15.90;99.90;;;;;;21078291;28;20035;-49
2023/03/25 10:20:24;;;;;;;8.23;5.22;;;14.60;99.90;;;;;;21004338;28;20032;-49
2023/03/25 10:30:40;;;;;;;8.60;5.35;;;14.20;99.90;;;;;;21076755;28;20054;-53
2023/03/25 10:40:48;;;;;;;9.55;5.80;;;14.10;99.90;;;;;;21075323;28;20082;-47
2023/03/25 10:50:53;;;;;;;9.13;5.72;;;14.30;99.90;;;;;;21075035;28;20028;-54
2023/03/25 11:00:55;;;;;;;7.55;5.28;;;13.90;99.90;;;;;;21074303;28;20028;-49
2023/03/25 11:10:58;;;;;;;13.23;7.38;;;13.90;99.90;;;;;;21072918;28;20489;-47
2023/03/25 11:21:05;;;;;;;8.35;5.80;;;13.00;99.90;;;;;;21072792;28;20436;-48
2023/03/25 11:31:12;;;;;;;10.45;6.30;;;12.90;99.90;;;;;;21071494;28;20088;-50
2023/03/25 11:41:14;;;;;;;9.73;6.40;;;12.30;99.90;;;;;;21071149;28;20477;-54
2023/03/25 11:51:27;;;;;;;10.45;7.30;;;11.50;99.90;;;;;;21071748;28;20028;-49
2023/03/25 12:01:36;;;;;;;8.77;6.00;;;11.50;99.90;;;;;;21070256;28;20031;-48
2023/03/25 12:11:45;;;;;;;8.90;7.20;;;11.60;99.90;;;;;;21069589;28;20047;-47
2023/03/25 12:22:05;;;;;;;15.93;5.87;;;11.50;99.90;;;;;;21069735;28;20043;-49
2023/03/25 12:32:33;;;;;;;8.40;4.93;;;11.70;99.90;;;;;;21068651;28;20036;-50
2023/03/25 12:42:47;;;;;;;5.90;4.40;;;11.50;99.90;;;;;;21068530;28;20105;-52
2023/03/25 12:52:51;;;;;;;5.68;3.15;;;10.90;99.90;;;;;;21068132;28;20300;-48
2023/03/25 13:03:15;;;;;;;8.25;1.90;;;11.60;99.90;;;;;;21075556;28;20031;-50
2023/03/25 13:13:24;;;;;;;3.22;2.13;;;11.00;98.90;;;;;;21083839;28;20539;-52
2023/03/25 13:23:27;;;;;;;4.20;2.67;;;10.80;99.40;;;;;;21082569;28;20493;-51
2023/03/25 13:33:34;;;;;;;3.72;2.40;;;10.90;98.20;;;;;;21082991;28;20028;-49
2023/03/25 13:43:53;;;;;;;4.28;2.42;;;10.90;98.60;;;;;;21081256;28;20044;-49
2023/03/25 13:54:08;;;;;;;6.82;2.75;;;10.70;97.90;;;;;;21081367;28;20020;-49
2023/03/25 14:04:36;;;;;;;3.50;2.45;;;10.50;99.00;;;;;;21060833;28;20032;-52
2023/03/25 14:14:48;;;;;;;4.50;2.25;;;10.40;98.10;;;;;;21077591;28;20074;-52
2023/03/25 14:24:51;;;;;;;4.85;1.85;;;10.60;98.50;;;;;;21077742;28;20058;-49
2023/03/25 14:34:59;;;;;;;5.72;2.05;;;11.10;96.20;;;;;;21076540;28;20098;-52
2023/03/25 14:45:31;;;;;;;3.03;2.00;;;11.10;95.00;;;;;;21075914;28;20085;-48
2023/03/25 14:55:40;;;;;;;2.83;1.67;;;11.40;95.40;;;;;;21075108;28;20023;-51
2023/03/25 15:05:43;;;;;;;4.30;1.80;;;11.30;95.40;;;;;;21117500;28;20036;-53
2023/03/25 15:15:44;;;;;;;3.83;1.85;;;11.70;94.10;;;;;;21074129;28;20430;-53
2023/03/25 15:25:51;;;;;;;2.75;1.80;;;11.80;93.80;;;;;;21071453;28;20032;-53
2023/03/25 15:36:16;;;;;;;7.75;1.77;;;11.40;93.10;;;;;;21073287;28;20077;-54
2023/03/25 15:47:00;;;;;;;3.08;1.52;;;10.90;93.90;;;;;;21071111;28;20043;-46
2023/03/25 15:57:30;;;;;;;3.22;1.90;;;10.70;94.30;;;;;;21057350;28;20051;-54
2023/03/25 16:07:33;;;;;;;;;;;10.70;94.70;;;;;;21070376;28;20435;-51
2023/03/25 16:17:35;;;;;;;4.03;1.73;;;10.70;94.90;;;;;;21043363;28;19923;-49
2023/03/25 16:27:43;;;;;;;3.10;1.95;;;10.50;94.70;;;;;;21016001;28;20040;-52
2023/03/25 16:37:44;;;;;;;3.05;1.15;;;10.40;94.90;;;;;;21074311;28;20031;-48
2023/03/25 16:47:48;;;;;;;2.92;1.10;;;10.20;94.40;;;;;;21084991;28;20085;-50
2023/03/25 16:57:50;;;;;;;2.53;1.00;;;10.10;94.40;;;;;;21084289;28;20093;-56
2023/03/25 17:07:58;;;;;;;1.42;0.85;;;9.90;93.80;;;;;;21065955;28;20052;-51
2023/03/25 17:18:00;;;;;;;4.60;0.90;;;9.70;93.90;;;;;;21082294;28;20040;-54
2023/03/25 17:28:27;;;;;;;1.77;0.60;;;9.50;93.90;;;;;;21081109;28;20394;-48
2023/03/25 17:38:37;;;;;;;0.88;0.55;;;9.30;94.20;;;;;;21080620;28;20097;-48
2023/03/25 17:48:38;;;;;;;2.10;0.57;;;8.80;94.80;;;;;;21078834;28;20024;-47
2023/03/25 17:58:40;;;;;;;3.75;0.60;;;8.40;94.00;;;;;;21078978;28;20035;-51
2023/03/25 18:08:42;;;;;;;3.92;0.77;;;8.70;93.80;;;;;;21078361;28;20044;-48
2023/03/25 18:18:44;;;;;;;2.53;0.50;;;8.10;93.90;;;;;;21077494;28;20436;-47
2023/03/25 18:28:47;;;;;;;2.88;0.30;;;8.50;92.20;;;;;;21076718;28;20093;-51
2023/03/25 18:38:49;;;;;;;1.38;0.30;;;8.50;92.50;;;;;;21076405;28;20032;-45
2023/03/25 18:48:50;;;;;;;1.38;0.10;;;8.50;91.30;;;;;;21075184;28;20579;-48
2023/03/25 18:58:52;;;;;;;0.73;0.20;;;8.50;90.30;;;;;;21073642;28;20048;-48
2023/03/25 19:08:55;;;;;;;0.17;0.10;;;8.40;90.10;;;;;;21073744;28;20489;-46
2023/03/25 19:18:58;;;;;;;0.20;0.10;;;8.10;84.90;;;;;;21073205;28;20447;-47
2023/03/25 19:29:00;;;;;;;0.22;0.10;;;8.90;79.70;;;;;;21071937;28;20032;-50
2023/03/25 19:39:07;;;;;;;0.30;0.10;;;9.20;77.40;;;;;;21071808;28;20378;-51
2023/03/25 19:49:09;;;;;;;2.25;0.10;;;8.80;80.30;;;;;;21070711;28;20085;-47
2023/03/25 19:59:10;;;;;;;0.20;0.10;;;7.50;85.70;;;;;;21069936;28;20108;-47
2023/03/25 20:09:12;;;;;;;0.13;0.03;;;6.60;86.60;;;;;;21068878;28;20058;-49
2023/03/25 20:19:14;;;;;;;0.30;0.03;;;7.00;85.00;;;;;;21069032;28;20036;-47
2023/03/25 20:29:18;;;;;;;0.00;0.00;;;7.00;82.00;;;;;;21068726;28;20043;-47
2023/03/25 20:39:21;;;;;;;0.10;0.00;;;7.30;83.50;;;;;;21068374;28;20032;-46
2023/03/25 20:49:24;;;;;;;0.00;0.00;;;6.80;80.00;;;;;;21068022;28;20024;-46
2023/03/25 20:59:26;;;;;;;1.20;0.03;;;7.30;78.90;;;;;;21067742;28;20431;-48
2023/03/25 21:09:27;;;;;;;0.10;0.05;;;7.00;82.40;;;;;;21067401;28;20036;-50
2023/03/25 21:19:29;;;;;;;0.10;0.00;;;6.60;80.90;;;;;;21066522;28;20066;-51
2023/03/25 21:29:30;;;;;;;0.00;0.00;;;6.20;81.30;;;;;;21081247;28;20113;-47
2023/03/25 21:39:32;;;;;;;0.00;0.00;;;6.40;81.10;;;;;;21080077;28;20109;-47
2023/03/25 21:49:34;;;;;;;0.20;0.05;;;6.10;83.10;;;;;;21080735;28;20050;-47
2023/03/25 21:59:36;;;;;;;0.90;0.00;;;5.20;86.50;;;;;;21079113;28;20032;-49
2023/03/25 22:09:38;;;;;;;0.17;0.00;;;4.30;90.00;;;;;;21078331;28;20036;-53
2023/03/25 22:19:39;;;;;;;0.30;0.10;;;3.70;91.50;;;;;;21077849;28;20036;-49
2023/03/25 22:29:42;;;;;;;0.52;0.10;;;3.40;92.60;;;;;;21074283;28;20052;-51
2023/03/25 22:39:44;;;;;;;0.17;0.00;;;3.80;91.80;;;;;;21077447;28;20020;-48
2023/03/25 22:49:45;;;;;;;0.40;0.20;;;3.60;92.90;;;;;;21075566;28;20051;-53
2023/03/25 22:59:50;;;;;;;0.30;0.20;;;3.60;94.20;;;;;;21075577;28;20032;-46
2023/03/25 23:09:51;;;;;;;0.88;0.20;;;3.70;93.70;;;;;;21074497;28;20433;-48
2023/03/25 23:19:53;;;;;;;0.55;0.22;;;3.70;94.80;;;;;;21055531;28;20370;-48
2023/03/25 23:29:55;;;;;;;0.70;0.28;;;3.20;96.10;;;;;;21073963;28;20371;-49
2023/03/25 23:39:57;;;;;;;0.50;0.10;;;3.00;96.50;;;;;;21073057;28;20028;-51
2023/03/25 23:50:00;;;;;;;2.72;0.30;;;2.60;96.50;;;;;;21070592;28;20035;-46
